Terminal Aerodrome Forecast
Issued by NWS Melbourne, FL

Home | Current Version | Previous Version | Text Only | Print | Product List | Glossary On
Versions: 1 2 3 4 5 6 7 8 9 10 11 12 13 14
198
FTUS42 KMLB 251734
TAFVRB
TAF
KVRB 251734Z 2518/2618 11012G18KT P6SM VCSH SCT020 BKN070 BKN250
     FM260000 13008KT P6SM VCSH SCT025 BKN070 OVC120
     FM261400 12014G19KT P6SM VCSH SCT020 BKN070 OVC120=

USA.gov is the U.S. government's official web portal to all federal, state and local government web resources and services.